Terminal Aerodrome Forecast
Issued by NWS

Home | Current Version | Previous Version | Text Only | Print | Product List | Glossary On
Versions: 1 2 3 4 5 6 7 8 9 10 11 12 13 14 15 16
000
FTUS45 KABQ 062344
TAFLVS
TAF
KLVS 062344Z 0700/0724 03011KT P6SM -SHRA SCT035 BKN070
     FM071000 07007KT 4SM BR OVC012
     FM071900 16007KT P6SM BKN025
     FM072100 19011KT P6SM VCTS BKN035CB OVC100=

USA.gov is the U.S. government's official web portal to all federal, state and local government web resources and services.